This is the latest recevied weather packets stored in our database for station/object DL8TF-13. If no packets are shown the sender has not sent any weather packets the latest 10 day(s).
| Time | Temp. | Humidity | Pressure | Rain* | Wind** | Luminosity | Snow |
|---|---|---|---|---|---|---|---|
| 1777962847 | 16.11° C | 71% | 977 hPa | - | - | - | - |
| 1777962247 | 16.11° C | 72% | 978 hPa | - | - | - | - |
| 1777961647 | 15.56° C | 75% | 978 hPa | - | - | - | - |
| 1777960446 | 15.56° C | 76% | 978 hPa | - | - | - | - |
| 1777959846 | 15.56° C | 76% | 978 hPa | - | - | - | - |
| 1777959246 | 15° C | 75% | 978 hPa | - | - | - | - |
| 1777958646 | 15° C | 75% | 978 hPa | - | - | - | - |
| 1777958046 | 14.44° C | 78% | 978 hPa | - | - | - | - |
| 1777957446 | 13.89° C | 78% | 978 hPa | - | - | - | - |
| 1777956846 | 13.89° C | 78% | 978 hPa | - | - | - | - |
| 1777956246 | 13.89° C | 76% | 978 hPa | - | - | - | - |
| 1777955646 | 13.33° C | 79% | 978 hPa | - | - | - | - |
| 1777955046 | 13.33° C | 81% | 978 hPa | - | - | - | - |
| 1777954446 | 13.33° C | 80% | 978 hPa | - | - | - | - |
| 1777953846 | 13.33° C | 81% | 978 hPa | - | - | - | - |
| 1777943645 | 15.56° C | 73% | 979 hPa | - | - | - | - |
| 1777943045 | 15.56° C | 73% | 979 hPa | - | - | - | - |
| 1777941245 | 16.11° C | 69% | 979 hPa | - | - | - | - |
| 1777932844 | 17.22° C | 62% | 980 hPa | - | - | - | - |
| 1777932244 | 17.22° C | 62% | 980 hPa | - | - | - | - |
| 1777925643 | 19.44° C | 47% | 981 hPa | - | - | - | - |
| 1777923243 | 20° C | 42% | 981 hPa | - | - | - | - |
| 1777922643 | 20° C | 42% | 981 hPa | - | - | - | - |
| 1777919642 | 20.56° C | 41% | 980 hPa | - | - | - | - |
| 1777919042 | 21.11° C | 39% | 980 hPa | - | - | - | - |
* Rain since midnight (hover to see other rain measurements)
** Current wind speed in m/s (hover to see current wind gust speed)